Time;durP1;ratioP1;P1;durP2;ratioP2;P2;SDS_P1;SDS_P2;PMS_P1;PMS_P2;Temp;Humidity;BMP_temperature;BMP_pressure;BME280_temperature;BME280_humidity;BME280_pressure;Samples;Min_cycle;Max_cycle;Signal;HPM_P1;HPM_P2
2023/08/13 00:00:44;;;;;;;4.20;1.48;;;;;;;;;;6366557;22;20016;-86
2023/08/13 00:03:10;;;;;;;1.92;1.30;;;;;;;;;;6338114;22;20021;-87
2023/08/13 00:05:36;;;;;;;3.42;1.60;;;;;;;;;;6366680;22;20036;-87
2023/08/13 00:08:02;;;;;;;3.00;1.50;;;;;;;;;;6368664;22;20075;-87
2023/08/13 00:10:28;;;;;;;3.15;1.27;;;;;;;;;;6338273;22;20022;-87
2023/08/13 00:12:54;;;;;;;4.72;2.17;;;;;;;;;;6365839;22;20022;-87
2023/08/13 00:15:20;;;;;;;5.65;1.80;;;;;;;;;;6366043;22;20015;-87
2023/08/13 00:17:46;;;;;;;3.58;1.52;;;;;;;;;;6366093;22;20424;-87
2023/08/13 00:20:13;;;;;;;6.18;1.67;;;;;;;;;;6365604;22;20064;-87
2023/08/13 00:22:39;;;;;;;3.65;1.50;;;;;;;;;;6366116;22;20014;-87
2023/08/13 00:25:05;;;;;;;5.47;1.55;;;;;;;;;;6337955;22;20014;-87
2023/08/13 00:27:31;;;;;;;3.58;1.50;;;;;;;;;;6366362;22;20006;-87
2023/08/13 00:29:57;;;;;;;2.53;1.77;;;;;;;;;;6366041;22;20014;-87
2023/08/13 00:32:23;;;;;;;7.18;1.88;;;;;;;;;;6366384;22;20359;-87
2023/08/13 00:34:49;;;;;;;3.35;1.67;;;;;;;;;;6337708;22;20021;-87
2023/08/13 00:37:16;;;;;;;4.70;1.80;;;;;;;;;;6337640;22;20021;-87
2023/08/13 00:39:42;;;;;;;5.60;2.05;;;;;;;;;;6338416;22;20036;-88
2023/08/13 00:42:09;;;;;;;2.42;1.35;;;;;;;;;;6364938;22;20337;-87
2023/08/13 00:44:35;;;;;;;2.78;1.30;;;;;;;;;;6367185;22;20426;-87
2023/08/13 00:47:01;;;;;;;3.65;1.58;;;;;;;;;;6338391;22;20347;-87
2023/08/13 00:49:27;;;;;;;4.57;1.33;;;;;;;;;;6365534;22;20021;-87
2023/08/13 00:51:53;;;;;;;4.55;1.40;;;;;;;;;;6366207;22;20079;-88
2023/08/13 00:54:19;;;;;;;2.05;1.15;;;;;;;;;;6365901;22;20335;-87
2023/08/13 00:56:47;;;;;;;4.72;1.63;;;;;;;;;;6367046;22;20011;-88
2023/08/13 00:59:13;;;;;;;5.43;2.00;;;;;;;;;;6337523;22;20015;-87
2023/08/13 01:01:39;;;;;;;3.85;0.93;;;;;;;;;;6338080;22;20085;-87
2023/08/13 01:04:05;;;;;;;7.35;1.40;;;;;;;;;;6337502;22;20014;-87
2023/08/13 01:06:44;;;;;;;4.35;1.50;;;;;;;;;;6366265;22;20015;-87
2023/08/13 01:09:30;;;;;;;3.33;1.30;;;;;;;;;;6365367;22;20036;-87
2023/08/13 01:12:00;;;;;;;5.75;1.80;;;;;;;;;;6365818;22;20041;-88
2023/08/13 01:14:30;;;;;;;6.38;1.60;;;;;;;;;;6365900;22;20015;-87
2023/08/13 01:16:57;;;;;;;3.05;1.45;;;;;;;;;;6365381;22;20041;-86
2023/08/13 01:19:24;;;;;;;5.50;1.35;;;;;;;;;;6366583;22;20011;-87
2023/08/13 01:21:50;;;;;;;5.00;1.48;;;;;;;;;;6366180;22;20022;-87
2023/08/13 01:24:16;;;;;;;5.15;1.40;;;;;;;;;;6365974;22;20011;-87
2023/08/13 01:26:49;;;;;;;6.45;1.50;;;;;;;;;;6365814;22;20308;-87
2023/08/13 01:29:30;;;;;;;6.13;1.95;;;;;;;;;;6338444;22;20024;-87
2023/08/13 01:31:58;;;;;;;6.03;1.50;;;;;;;;;;6366465;22;20014;-87
2023/08/13 01:34:24;;;;;;;3.38;1.50;;;;;;;;;;6366654;22;20015;-87
2023/08/13 01:36:50;;;;;;;5.18;1.55;;;;;;;;;;6371520;22;20129;-89
2023/08/13 01:39:16;;;;;;;6.60;1.63;;;;;;;;;;6373804;22;20006;-87
2023/08/13 01:41:51;;;;;;;4.15;1.50;;;;;;;;;;6374727;22;20038;-87
2023/08/13 01:44:17;;;;;;;4.05;1.45;;;;;;;;;;6375395;22;20014;-86
2023/08/13 01:46:43;;;;;;;8.10;1.98;;;;;;;;;;6354246;22;20039;-87
2023/08/13 01:49:09;;;;;;;5.70;1.80;;;;;;;;;;6381673;22;20044;-87
2023/08/13 01:51:35;;;;;;;5.30;1.95;;;;;;;;;;6349296;22;20019;-87
2023/08/13 01:54:01;;;;;;;4.55;1.60;;;;;;;;;;6367959;22;20022;-87
2023/08/13 01:56:27;;;;;;;5.10;1.20;;;;;;;;;;6368251;22;20501;-87
2023/08/13 01:58:53;;;;;;;2.47;1.40;;;;;;;;;;6368159;22;20034;-87
2023/08/13 02:01:19;;;;;;;4.78;1.40;;;;;;;;;;6367241;22;20014;-87
2023/08/13 02:03:45;;;;;;;6.72;1.75;;;;;;;;;;6340765;22;20022;-87
2023/08/13 02:06:11;;;;;;;6.57;1.77;;;;;;;;;;6340070;22;20006;-87
2023/08/13 02:08:37;;;;;;;3.10;1.42;;;;;;;;;;6368662;22;20059;-87
2023/08/13 02:11:03;;;;;;;7.40;1.85;;;;;;;;;;6339213;22;20183;-87
2023/08/13 02:13:29;;;;;;;5.15;1.33;;;;;;;;;;6368086;22;20018;-87
2023/08/13 02:16:01;;;;;;;4.32;1.45;;;;;;;;;;6366980;22;20015;-87
2023/08/13 02:18:27;;;;;;;4.38;1.38;;;;;;;;;;6368664;22;20370;-87
2023/08/13 02:20:53;;;;;;;5.47;1.48;;;;;;;;;;6368105;22;20014;-87
2023/08/13 02:23:19;;;;;;;4.78;1.70;;;;;;;;;;6338271;22;20014;-86
2023/08/13 02:25:45;;;;;;;4.25;1.45;;;;;;;;;;6340070;22;20427;-87
2023/08/13 02:28:11;;;;;;;3.47;1.65;;;;;;;;;;6367319;22;20015;-87
2023/08/13 02:30:37;;;;;;;6.43;1.70;;;;;;;;;;6339102;22;20331;-87
2023/08/13 02:33:03;;;;;;;5.22;1.65;;;;;;;;;;6339721;22;20014;-87
2023/08/13 02:35:29;;;;;;;5.38;1.58;;;;;;;;;;6366949;22;20037;-86
2023/08/13 02:37:55;;;;;;;6.85;1.60;;;;;;;;;;6338311;22;20018;-87
2023/08/13 02:40:21;;;;;;;4.25;1.90;;;;;;;;;;6366256;22;20022;-86
2023/08/13 02:42:47;;;;;;;2.15;1.77;;;;;;;;;;6338861;22;20010;-87
2023/08/13 02:45:13;;;;;;;8.73;1.63;;;;;;;;;;6366367;22;20365;-86
2023/08/13 02:47:39;;;;;;;6.93;1.85;;;;;;;;;;6367318;22;20081;-87
2023/08/13 02:50:06;;;;;;;4.30;1.58;;;;;;;;;;6367479;22;20439;-86
2023/08/13 02:52:32;;;;;;;4.13;1.50;;;;;;;;;;6355294;22;20014;-87
2023/08/13 02:54:58;;;;;;;5.53;1.85;;;;;;;;;;6391373;22;20014;-87
2023/08/13 02:57:24;;;;;;;3.33;1.80;;;;;;;;;;6377808;22;20353;-86
2023/08/13 02:59:50;;;;;;;7.47;1.63;;;;;;;;;;6370134;22;20025;-87
2023/08/13 03:02:16;;;;;;;5.60;2.03;;;;;;;;;;6341651;22;20022;-86
2023/08/13 03:04:43;;;;;;;2.28;1.65;;;;;;;;;;6369663;22;20017;-87
2023/08/13 03:07:09;;;;;;;5.35;1.88;;;;;;;;;;6367641;22;20029;-87
2023/08/13 03:09:35;;;;;;;7.70;2.67;;;;;;;;;;6367741;22;20017;-87
2023/08/13 03:12:01;;;;;;;5.80;1.77;;;;;;;;;;6338480;22;20454;-87
2023/08/13 03:14:27;;;;;;;2.95;1.58;;;;;;;;;;6365629;22;20093;-87
2023/08/13 03:16:53;;;;;;;5.90;1.92;;;;;;;;;;6367023;22;20165;-87
2023/08/13 03:19:19;;;;;;;3.70;1.55;;;;;;;;;;6367298;22;20041;-87
2023/08/13 03:21:45;;;;;;;4.00;1.98;;;;;;;;;;6366471;22;20038;-87
2023/08/13 03:24:11;;;;;;;3.33;2.47;;;;;;;;;;6365867;22;20085;-87
2023/08/13 03:26:37;;;;;;;4.22;2.00;;;;;;;;;;6339665;22;20006;-87
2023/08/13 03:29:03;;;;;;;4.85;1.60;;;;;;;;;;6365972;22;20564;-87
2023/08/13 03:31:29;;;;;;;4.35;1.85;;;;;;;;;;6366860;22;20025;-87
2023/08/13 03:33:55;;;;;;;2.53;1.70;;;;;;;;;;6338346;22;20010;-87
2023/08/13 03:36:21;;;;;;;8.75;2.70;;;;;;;;;;6367499;22;20007;-87
2023/08/13 03:38:47;;;;;;;5.68;1.88;;;;;;;;;;6367212;22;20446;-87
2023/08/13 03:41:13;;;;;;;5.20;1.77;;;;;;;;;;6366534;22;20017;-87
2023/08/13 03:43:39;;;;;;;4.30;1.73;;;;;;;;;;6366825;22;20089;-87
2023/08/13 03:46:05;;;;;;;4.90;1.48;;;;;;;;;;6338050;22;20431;-87
2023/08/13 03:48:31;;;;;;;3.85;1.70;;;;;;;;;;6366814;22;20007;-87
2023/08/13 03:50:57;;;;;;;5.28;1.98;;;;;;;;;;6367064;22;20025;-87
2023/08/13 03:53:24;;;;;;;4.75;1.73;;;;;;;;;;6338198;22;20010;-87
2023/08/13 03:55:51;;;;;;;4.95;1.92;;;;;;;;;;6366833;22;20018;-87
2023/08/13 03:58:17;;;;;;;5.72;1.90;;;;;;;;;;6336952;22;20014;-87
2023/08/13 04:00:43;;;;;;;2.95;1.63;;;;;;;;;;6367558;22;20094;-87
2023/08/13 04:03:10;;;;;;;4.47;1.30;;;;;;;;;;6339082;22;20053;-87
2023/08/13 04:05:36;;;;;;;5.75;1.75;;;;;;;;;;6367792;22;20011;-87
2023/08/13 04:08:02;;;;;;;5.88;1.63;;;;;;;;;;6339076;22;20018;-87
2023/08/13 04:10:29;;;;;;;5.10;1.92;;;;;;;;;;6365467;22;20061;-86
2023/08/13 04:13:00;;;;;;;8.32;3.85;;;;;;;;;;6337333;22;20317;-87
2023/08/13 04:15:26;;;;;;;4.03;1.42;;;;;;;;;;6338568;22;20343;-87
2023/08/13 04:17:52;;;;;;;6.07;1.85;;;;;;;;;;6366247;22;20021;-87
2023/08/13 04:20:18;;;;;;;4.63;1.73;;;;;;;;;;6365401;22;20014;-87
2023/08/13 04:22:45;;;;;;;4.32;1.77;;;;;;;;;;6338114;22;20014;-86
2023/08/13 04:25:11;;;;;;;3.05;1.60;;;;;;;;;;6366124;22;20010;-87
2023/08/13 04:27:37;;;;;;;4.63;1.75;;;;;;;;;;6338606;22;20377;-87
2023/08/13 04:30:04;;;;;;;6.57;2.05;;;;;;;;;;6338491;22;20014;-87
2023/08/13 04:32:31;;;;;;;6.28;1.80;;;;;;;;;;6338472;22;20018;-87
2023/08/13 04:34:58;;;;;;;8.13;1.80;;;;;;;;;;6365703;22;20034;-87
2023/08/13 04:37:24;;;;;;;5.22;1.55;;;;;;;;;;6366038;22;20380;-86
2023/08/13 04:39:50;;;;;;;5.70;2.00;;;;;;;;;;6366421;22;20062;-88
2023/08/13 04:42:16;;;;;;;4.65;2.08;;;;;;;;;;6337913;22;20486;-87
2023/08/13 04:44:42;;;;;;;3.85;1.40;;;;;;;;;;6337209;22;20021;-86
2023/08/13 04:47:08;;;;;;;6.85;1.70;;;;;;;;;;6364297;22;20010;-86
2023/08/13 04:49:34;;;;;;;3.00;1.63;;;;;;;;;;6336877;22;20017;-87
2023/08/13 04:52:00;;;;;;;5.10;2.10;;;;;;;;;;6365681;22;20338;-87
2023/08/13 04:54:26;;;;;;;6.22;1.70;;;;;;;;;;6337673;22;20381;-87
2023/08/13 04:56:52;;;;;;;5.95;1.70;;;;;;;;;;6336932;22;20141;-87
2023/08/13 04:59:18;;;;;;;3.55;2.28;;;;;;;;;;6336699;22;20601;-86
2023/08/13 05:01:44;;;;;;;5.65;1.63;;;;;;;;;;6338007;22;20325;-86
2023/08/13 05:04:12;;;;;;;7.20;2.03;;;;;;;;;;6365789;22;20039;-88
2023/08/13 05:06:38;;;;;;;4.22;1.52;;;;;;;;;;6338540;22;20014;-87
2023/08/13 05:09:04;;;;;;;4.57;1.60;;;;;;;;;;6364079;22;20011;-87
2023/08/13 05:11:30;;;;;;;5.82;2.10;;;;;;;;;;6364571;22;20376;-87
2023/08/13 05:13:56;;;;;;;3.25;1.65;;;;;;;;;;6337792;22;20015;-87
2023/08/13 05:16:22;;;;;;;3.78;2.03;;;;;;;;;;6367222;22;20384;-87
2023/08/13 05:18:48;;;;;;;6.40;2.47;;;;;;;;;;6337480;22;20042;-87
2023/08/13 05:21:15;;;;;;;4.18;1.88;;;;;;;;;;6367072;22;20033;-88
2023/08/13 05:23:41;;;;;;;3.92;1.65;;;;;;;;;;6368741;22;20018;-88
2023/08/13 05:26:07;;;;;;;5.38;2.30;;;;;;;;;;6367740;22;20041;-87
2023/08/13 05:28:33;;;;;;;4.80;2.00;;;;;;;;;;6367260;22;20014;-88
2023/08/13 05:31:02;;;;;;;5.07;2.05;;;;;;;;;;6367086;22;20050;-88
2023/08/13 05:33:28;;;;;;;3.75;1.65;;;;;;;;;;6342076;22;20018;-93
2023/08/13 05:35:54;;;;;;;3.83;2.13;;;;;;;;;;6370105;22;20379;-91
2023/08/13 05:38:20;;;;;;;2.83;1.45;;;;;;;;;;6369670;22;20022;-91
2023/08/13 05:40:48;;;;;;;7.22;2.38;;;;;;;;;;6341910;22;20015;-91
2023/08/13 05:43:14;;;;;;;6.45;2.20;;;;;;;;;;6342428;22;20016;-93
2023/08/13 05:45:41;;;;;;;5.03;2.10;;;;;;;;;;6342938;22;20018;-93
2023/08/13 05:48:07;;;;;;;7.03;1.95;;;;;;;;;;6370592;22;20007;-92
2023/08/13 05:50:33;;;;;;;6.43;1.88;;;;;;;;;;6346135;22;20026;-93
2023/08/13 05:52:59;;;;;;;5.28;2.22;;;;;;;;;;6347830;22;20343;-92
2023/08/13 05:55:25;;;;;;;5.57;2.17;;;;;;;;;;6317257;22;20068;-91
2023/08/13 05:57:51;;;;;;;4.93;2.47;;;;;;;;;;6367264;22;20010;-94
2023/08/13 06:00:18;;;;;;;4.25;2.30;;;;;;;;;;6342955;22;20048;-91
2023/08/13 06:02:44;;;;;;;4.35;2.22;;;;;;;;;;6345335;22;20085;-89
2023/08/13 06:05:11;;;;;;;5.28;2.25;;;;;;;;;;6371006;22;20019;-92
2023/08/13 06:07:37;;;;;;;7.03;2.40;;;;;;;;;;6373617;22;20094;-91
2023/08/13 06:10:04;;;;;;;7.03;2.47;;;;;;;;;;6371745;22;20014;-91
2023/08/13 06:12:30;;;;;;;8.60;2.53;;;;;;;;;;6374696;22;20446;-91
2023/08/13 06:14:56;;;;;;;4.35;2.33;;;;;;;;;;6344583;22;20011;-91
2023/08/13 06:17:22;;;;;;;7.35;2.53;;;;;;;;;;6370334;22;20018;-89
2023/08/13 06:19:48;;;;;;;4.20;2.13;;;;;;;;;;6369325;22;20041;-92
2023/08/13 06:22:14;;;;;;;4.88;2.60;;;;;;;;;;6341033;22;20045;-92
2023/08/13 06:24:40;;;;;;;9.90;2.75;;;;;;;;;;6342479;22;20067;-91
2023/08/13 06:27:06;;;;;;;5.88;2.55;;;;;;;;;;6368991;22;20067;-91
2023/08/13 06:29:32;;;;;;;7.85;2.55;;;;;;;;;;6342812;22;20006;-92
2023/08/13 06:31:58;;;;;;;8.60;2.60;;;;;;;;;;6370845;22;20018;-91
2023/08/13 06:34:24;;;;;;;5.88;2.40;;;;;;;;;;6370251;22;20010;-90
2023/08/13 06:36:51;;;;;;;9.10;2.42;;;;;;;;;;6343752;22;20045;-91
2023/08/13 06:39:18;;;;;;;6.32;2.53;;;;;;;;;;6371787;22;20060;-93
2023/08/13 06:41:44;;;;;;;7.50;2.50;;;;;;;;;;6370847;22;20010;-91
2023/08/13 06:44:17;;;;;;;5.32;2.10;;;;;;;;;;6315566;22;20014;-90
2023/08/13 06:46:43;;;;;;;5.40;3.47;;;;;;;;;;6342725;22;20099;-91
2023/08/13 06:49:09;;;;;;;8.27;2.63;;;;;;;;;;6370121;22;20033;-89
2023/08/13 06:51:35;;;;;;;8.57;2.60;;;;;;;;;;6343022;22;20010;-89
2023/08/13 06:54:01;;;;;;;6.20;2.50;;;;;;;;;;6367435;22;20018;-88
2023/08/13 06:56:27;;;;;;;6.68;2.30;;;;;;;;;;6339102;22;20721;-88
2023/08/13 06:58:53;;;;;;;4.68;2.78;;;;;;;;;;6341334;22;20022;-86
2023/08/13 07:01:20;;;;;;;4.97;2.15;;;;;;;;;;6374143;22;20015;-95
2023/08/13 07:03:46;;;;;;;6.95;3.05;;;;;;;;;;6376846;22;20010;-95
2023/08/13 07:06:12;;;;;;;5.88;2.45;;;;;;;;;;6383260;22;20006;-95
2023/08/13 07:08:38;;;;;;;6.13;2.33;;;;;;;;;;6398088;22;20020;-95
2023/08/13 07:11:04;;;;;;;4.88;2.35;;;;;;;;;;6397833;22;20028;-96
2023/08/13 07:13:30;;;;;;;4.32;2.53;;;;;;;;;;6397274;22;20038;-93
2023/08/13 07:15:56;;;;;;;8.25;2.75;;;;;;;;;;6375851;22;20038;-96
2023/08/13 07:18:22;;;;;;;5.47;2.47;;;;;;;;;;6372182;22;20029;-93
2023/08/13 07:20:48;;;;;;;3.97;2.42;;;;;;;;;;6348810;22;20011;-95
2023/08/13 07:23:14;;;;;;;6.43;2.72;;;;;;;;;;6371430;22;20010;-95
2023/08/13 07:25:40;;;;;;;6.93;2.85;;;;;;;;;;6372151;22;20060;-95
2023/08/13 07:28:06;;;;;;;4.22;2.42;;;;;;;;;;6372799;22;20090;-95
2023/08/13 07:30:32;;;;;;;7.03;2.70;;;;;;;;;;6372808;22;20015;-94
2023/08/13 07:32:58;;;;;;;6.18;2.35;;;;;;;;;;6344554;22;20022;-95
2023/08/13 07:35:25;;;;;;;6.00;2.53;;;;;;;;;;6378697;22;20038;-95
2023/08/13 07:37:52;;;;;;;4.50;2.00;;;;;;;;;;6345487;22;20010;-96
2023/08/13 07:40:18;;;;;;;5.75;1.80;;;;;;;;;;6344760;22;20063;-95
2023/08/13 07:42:44;;;;;;;4.05;2.00;;;;;;;;;;6371401;22;20013;-95
2023/08/13 07:45:11;;;;;;;5.57;2.00;;;;;;;;;;6372287;22;20014;-95
2023/08/13 07:47:37;;;;;;;4.32;2.05;;;;;;;;;;6345208;22;20016;-94
2023/08/13 07:50:04;;;;;;;3.53;1.70;;;;;;;;;;6373163;22;20014;-93
2023/08/13 07:52:34;;;;;;;4.90;1.77;;;;;;;;;;6371833;22;20018;-93
2023/08/13 07:55:00;;;;;;;5.05;1.88;;;;;;;;;;6343879;22;20466;-94
2023/08/13 07:57:26;;;;;;;5.82;1.90;;;;;;;;;;6371494;22;20330;-94
2023/08/13 07:59:52;;;;;;;4.55;2.05;;;;;;;;;;6375242;22;20026;-96
2023/08/13 08:02:18;;;;;;;5.68;2.15;;;;;;;;;;6372392;22;20330;-95
2023/08/13 08:04:47;;;;;;;4.80;2.17;;;;;;;;;;6371526;22;20010;-95
2023/08/13 08:07:13;;;;;;;5.10;1.73;;;;;;;;;;6373526;22;20409;-96
2023/08/13 08:09:39;;;;;;;5.53;2.20;;;;;;;;;;6373315;22;20071;-95
2023/08/13 08:12:06;;;;;;;4.15;1.92;;;;;;;;;;6372337;22;20014;-95
2023/08/13 08:14:32;;;;;;;4.95;1.88;;;;;;;;;;6372726;22;20021;-92
2023/08/13 08:17:04;;;;;;;5.32;1.83;;;;;;;;;;6343506;22;20085;-92
2023/08/13 08:19:30;;;;;;;4.45;2.08;;;;;;;;;;6370994;22;20063;-94
2023/08/13 08:21:58;;;;;;;5.00;2.03;;;;;;;;;;6369309;22;20010;-95
2023/08/13 08:24:24;;;;;;;4.65;2.00;;;;;;;;;;6369240;22;20068;-94
2023/08/13 08:26:50;;;;;;;6.60;2.40;;;;;;;;;;6368885;22;20022;-95
2023/08/13 08:29:16;;;;;;;7.65;2.08;;;;;;;;;;6370612;22;20017;-95
2023/08/13 08:31:42;;;;;;;5.78;2.38;;;;;;;;;;6371429;22;20010;-94
2023/08/13 08:34:08;;;;;;;6.03;2.10;;;;;;;;;;6369268;22;20037;-93
2023/08/13 08:36:34;;;;;;;2.20;1.30;;;;;;;;;;6370170;22;20021;-94
2023/08/13 08:39:00;;;;;;;3.83;2.13;;;;;;;;;;6371442;22;20014;-95
2023/08/13 08:41:31;;;;;;;5.18;1.83;;;;;;;;;;6341427;22;20014;-95
2023/08/13 08:43:59;;;;;;;5.30;2.15;;;;;;;;;;6351720;22;20006;-94
2023/08/13 08:46:27;;;;;;;7.68;2.17;;;;;;;;;;6393588;22;20010;-95
2023/08/13 08:48:53;;;;;;;4.93;2.25;;;;;;;;;;6338556;22;20051;-96
2023/08/13 08:51:21;;;;;;;3.35;1.85;;;;;;;;;;6385501;22;20023;-93
2023/08/13 08:53:47;;;;;;;4.90;1.92;;;;;;;;;;6387585;22;20035;-94
2023/08/13 08:56:14;;;;;;;7.70;2.00;;;;;;;;;;6342869;22;20024;-94
2023/08/13 08:58:40;;;;;;;5.95;1.70;;;;;;;;;;6344030;22;20351;-92
2023/08/13 09:01:06;;;;;;;4.30;2.58;;;;;;;;;;6369126;22;20281;-92
2023/08/13 09:03:32;;;;;;;2.75;1.70;;;;;;;;;;6341826;22;20014;-94
2023/08/13 09:05:58;;;;;;;3.83;1.42;;;;;;;;;;6368078;22;20015;-92
2023/08/13 09:08:24;;;;;;;6.68;1.88;;;;;;;;;;6368271;22;20095;-94
2023/08/13 09:10:50;;;;;;;3.95;1.65;;;;;;;;;;6368692;22;20025;-94
2023/08/13 09:13:16;;;;;;;3.55;1.70;;;;;;;;;;6369326;22;20016;-93
2023/08/13 09:15:48;;;;;;;4.28;2.00;;;;;;;;;;6368133;22;20077;-93
2023/08/13 09:18:14;;;;;;;6.45;2.20;;;;;;;;;;6367869;22;20014;-95
2023/08/13 09:20:44;;;;;;;2.40;1.27;;;;;;;;;;6368988;22;20131;-92
2023/08/13 09:23:10;;;;;;;4.00;1.45;;;;;;;;;;6368285;22;20131;-93
2023/08/13 09:25:37;;;;;;;2.58;1.30;;;;;;;;;;6340831;22;20011;-92
2023/08/13 09:28:03;;;;;;;4.68;1.52;;;;;;;;;;6367650;22;20011;-92
2023/08/13 09:30:31;;;;;;;6.32;1.90;;;;;;;;;;6368306;22;20018;-93
2023/08/13 09:32:58;;;;;;;4.32;1.40;;;;;;;;;;6368335;22;20015;-92
2023/08/13 09:35:24;;;;;;;2.72;1.33;;;;;;;;;;6368966;22;20010;-92
2023/08/13 09:37:51;;;;;;;3.78;1.58;;;;;;;;;;6368590;22;20013;-93
2023/08/13 09:40:17;;;;;;;5.30;1.33;;;;;;;;;;6368045;22;20011;-93
2023/08/13 09:42:43;;;;;;;4.38;1.30;;;;;;;;;;6368649;22;20013;-93
2023/08/13 09:45:10;;;;;;;3.38;1.70;;;;;;;;;;6367623;22;20018;-91
2023/08/13 09:47:37;;;;;;;4.90;1.50;;;;;;;;;;6367447;22;20042;-92
2023/08/13 09:50:03;;;;;;;5.10;1.20;;;;;;;;;;6367918;22;20018;-93
2023/08/13 09:52:30;;;;;;;3.85;1.40;;;;;;;;;;6368631;22;20036;-95
2023/08/13 09:55:01;;;;;;;1.63;1.10;;;;;;;;;;6369372;22;20014;-94
2023/08/13 09:57:28;;;;;;;2.42;1.20;;;;;;;;;;6385977;22;20228;-93
2023/08/13 09:59:54;;;;;;;3.92;1.20;;;;;;;;;;6360007;22;20024;-92
2023/08/13 10:02:21;;;;;;;2.58;1.13;;;;;;;;;;6357697;22;20062;-93
2023/08/13 10:04:47;;;;;;;1.70;1.02;;;;;;;;;;6359474;22;20014;-93
2023/08/13 10:07:13;;;;;;;5.68;1.40;;;;;;;;;;6391036;22;20029;-91
2023/08/13 10:09:40;;;;;;;6.57;1.48;;;;;;;;;;6353915;22;20026;-93
2023/08/13 10:12:07;;;;;;;4.05;1.05;;;;;;;;;;6369959;22;20006;-94
2023/08/13 10:14:34;;;;;;;2.03;0.80;;;;;;;;;;6370714;22;20049;-92
2023/08/13 10:17:01;;;;;;;2.75;1.27;;;;;;;;;;6370159;22;20011;-92
2023/08/13 10:19:30;;;;;;;4.15;1.00;;;;;;;;;;6342216;22;20010;-92
2023/08/13 10:21:57;;;;;;;2.50;1.30;;;;;;;;;;6371040;22;20327;-93
2023/08/13 10:24:24;;;;;;;4.88;1.00;;;;;;;;;;6343064;22;20410;-91
2023/08/13 10:26:50;;;;;;;1.90;0.95;;;;;;;;;;6370253;22;20010;-91
2023/08/13 10:29:20;;;;;;;2.47;1.02;;;;;;;;;;6368363;22;20060;-92
2023/08/13 10:32:01;;;;;;;1.98;0.70;;;;;;;;;;6369544;22;20014;-92
2023/08/13 10:34:50;;;;;;;2.63;1.08;;;;;;;;;;6342087;22;20014;-92
2023/08/13 10:37:20;;;;;;;2.25;0.93;;;;;;;;;;6342720;22;20427;-92
2023/08/13 10:39:46;;;;;;;1.67;0.70;;;;;;;;;;6370701;22;20011;-92
2023/08/13 10:42:36;;;;;;;1.75;0.80;;;;;;;;;;6369535;22;20010;-91
2023/08/13 10:45:05;;;;;;;2.05;0.90;;;;;;;;;;6369518;22;20010;-91
2023/08/13 10:47:45;;;;;;;2.85;0.70;;;;;;;;;;6369816;22;20059;-91
2023/08/13 10:50:21;;;;;;;1.50;0.70;;;;;;;;;;6369197;22;20021;-91
2023/08/13 10:53:01;;;;;;;1.25;0.68;;;;;;;;;;6369238;22;20013;-91
2023/08/13 10:55:30;;;;;;;2.17;0.70;;;;;;;;;;6374129;22;20044;-91
2023/08/13 10:57:56;;;;;;;1.30;0.77;;;;;;;;;;6385361;22;20010;-91
2023/08/13 11:00:23;;;;;;;1.02;0.52;;;;;;;;;;6384329;22;20010;-90
2023/08/13 11:02:52;;;;;;;2.80;0.60;;;;;;;;;;6385257;22;20021;-90
2023/08/13 11:05:19;;;;;;;1.38;0.80;;;;;;;;;;6346391;22;20017;-91
2023/08/13 11:07:45;;;;;;;3.38;0.80;;;;;;;;;;6370450;22;20031;-92
2023/08/13 11:10:18;;;;;;;2.33;0.57;;;;;;;;;;6341759;22;20400;-92
2023/08/13 11:12:45;;;;;;;0.80;0.70;;;;;;;;;;6342052;22;20014;-92
2023/08/13 11:15:11;;;;;;;3.05;0.80;;;;;;;;;;6368328;22;20045;-91
2023/08/13 11:17:37;;;;;;;2.67;1.25;;;;;;;;;;6369282;22;20007;-92
2023/08/13 11:20:05;;;;;;;1.23;0.70;;;;;;;;;;6368395;22;20017;-92
2023/08/13 11:22:32;;;;;;;2.67;0.70;;;;;;;;;;6341134;22;20046;-91
2023/08/13 11:24:58;;;;;;;2.78;0.60;;;;;;;;;;6368333;22;20018;-91
2023/08/13 11:27:28;;;;;;;1.95;0.90;;;;;;;;;;6339924;22;20020;-91
2023/08/13 11:29:54;;;;;;;1.42;0.52;;;;;;;;;;6340591;22;20091;-90
2023/08/13 11:32:20;;;;;;;2.70;0.80;;;;;;;;;;6368709;22;20010;-91
2023/08/13 11:34:46;;;;;;;3.10;0.90;;;;;;;;;;6369798;22;20015;-91
2023/08/13 11:37:13;;;;;;;2.22;0.98;;;;;;;;;;6369976;22;20035;-91
2023/08/13 11:39:39;;;;;;;1.25;0.70;;;;;;;;;;6369023;22;20440;-92
2023/08/13 11:42:11;;;;;;;2.22;0.95;;;;;;;;;;6368529;22;20067;-91
2023/08/13 11:44:37;;;;;;;1.23;0.80;;;;;;;;;;6369042;22;20006;-92
2023/08/13 11:47:06;;;;;;;3.45;0.90;;;;;;;;;;6368971;22;20018;-92
2023/08/13 11:49:41;;;;;;;1.45;0.90;;;;;;;;;;6341213;22;20014;-91
2023/08/13 11:52:07;;;;;;;4.18;0.85;;;;;;;;;;6368848;22;20038;-91
2023/08/13 11:54:35;;;;;;;2.35;1.02;;;;;;;;;;6341139;22;20379;-92
2023/08/13 11:57:01;;;;;;;1.42;0.80;;;;;;;;;;6340354;22;20010;-92
2023/08/13 11:59:30;;;;;;;2.30;0.90;;;;;;;;;;6340400;22;20018;-91
2023/08/13 12:01:56;;;;;;;2.47;1.15;;;;;;;;;;6339663;22;20095;-91
2023/08/13 12:04:29;;;;;;;2.55;0.90;;;;;;;;;;6368516;22;20014;-91
2023/08/13 12:06:55;;;;;;;3.80;0.90;;;;;;;;;;6340726;22;20018;-90
2023/08/13 12:09:21;;;;;;;2.25;1.23;;;;;;;;;;6368558;22;20006;-91
2023/08/13 12:11:48;;;;;;;2.67;0.80;;;;;;;;;;6368373;22;20491;-91
2023/08/13 12:14:14;;;;;;;2.25;1.10;;;;;;;;;;6370248;22;20410;-91
2023/08/13 12:16:40;;;;;;;4.68;1.40;;;;;;;;;;6369444;22;20068;-91
2023/08/13 12:19:06;;;;;;;2.95;1.08;;;;;;;;;;6370990;22;20010;-92
2023/08/13 12:21:36;;;;;;;1.95;0.90;;;;;;;;;;6342946;22;20015;-91
2023/08/13 12:24:05;;;;;;;4.10;1.15;;;;;;;;;;6368215;22;20006;-90
2023/08/13 12:26:32;;;;;;;2.55;1.30;;;;;;;;;;6368251;22;20017;-91
2023/08/13 12:28:58;;;;;;;3.45;0.98;;;;;;;;;;6342979;22;20033;-91
2023/08/13 12:31:25;;;;;;;1.92;1.00;;;;;;;;;;6371372;22;20014;-90
2023/08/13 12:33:52;;;;;;;4.28;1.48;;;;;;;;;;6372535;22;20014;-90
2023/08/13 12:36:18;;;;;;;2.85;1.02;;;;;;;;;;6346197;22;20019;-91
2023/08/13 12:38:44;;;;;;;3.00;1.38;;;;;;;;;;6366011;22;20022;-90
2023/08/13 12:41:11;;;;;;;5.18;1.08;;;;;;;;;;6391307;22;20046;-91
2023/08/13 12:43:37;;;;;;;5.28;1.42;;;;;;;;;;6391005;22;20014;-91
2023/08/13 12:46:05;;;;;;;5.45;1.60;;;;;;;;;;6377375;22;20020;-92
2023/08/13 12:48:32;;;;;;;2.60;1.23;;;;;;;;;;6367813;22;20007;-91
2023/08/13 12:50:59;;;;;;;2.80;1.20;;;;;;;;;;6367710;22;20067;-91
2023/08/13 12:53:25;;;;;;;5.05;1.65;;;;;;;;;;6367813;22;20010;-90
2023/08/13 12:55:51;;;;;;;4.82;1.33;;;;;;;;;;6340321;22;20094;-90
2023/08/13 12:58:17;;;;;;;3.13;1.40;;;;;;;;;;6367774;22;20010;-89
2023/08/13 13:00:43;;;;;;;3.55;1.45;;;;;;;;;;6339730;22;20067;-90
2023/08/13 13:03:09;;;;;;;5.13;1.23;;;;;;;;;;6366850;22;20099;-90
2023/08/13 13:05:35;;;;;;;3.55;1.60;;;;;;;;;;6368059;22;20015;-91
2023/08/13 13:08:01;;;;;;;2.67;1.33;;;;;;;;;;6339473;22;20055;-90
2023/08/13 13:10:27;;;;;;;3.25;1.30;;;;;;;;;;6366310;22;20054;-90
2023/08/13 13:12:53;;;;;;;6.43;1.38;;;;;;;;;;6367303;22;20439;-90
2023/08/13 13:15:20;;;;;;;3.83;1.40;;;;;;;;;;6339826;22;20014;-88
2023/08/13 13:17:46;;;;;;;4.47;1.50;;;;;;;;;;6341261;22;20014;-90
2023/08/13 13:20:13;;;;;;;4.10;1.40;;;;;;;;;;6368861;22;20010;-90
2023/08/13 13:22:42;;;;;;;4.28;1.35;;;;;;;;;;6367902;22;20025;-90
2023/08/13 13:25:11;;;;;;;2.05;0.90;;;;;;;;;;6366891;22;20449;-90
2023/08/13 13:27:37;;;;;;;6.30;1.30;;;;;;;;;;6368428;22;20014;-91
2023/08/13 13:30:06;;;;;;;3.00;1.42;;;;;;;;;;6367786;22;20014;-91
2023/08/13 13:32:35;;;;;;;2.10;1.10;;;;;;;;;;6368708;22;20034;-92
2023/08/13 13:35:02;;;;;;;5.85;1.58;;;;;;;;;;6367774;22;20598;-90
2023/08/13 13:37:29;;;;;;;4.43;1.25;;;;;;;;;;6340090;22;20338;-90
2023/08/13 13:39:55;;;;;;;2.53;1.10;;;;;;;;;;6339999;22;20511;-91
2023/08/13 13:42:21;;;;;;;5.38;1.25;;;;;;;;;;6368453;22;20036;-91
2023/08/13 13:44:47;;;;;;;5.30;1.27;;;;;;;;;;6341663;22;20010;-91
2023/08/13 13:47:13;;;;;;;5.35;1.65;;;;;;;;;;6340821;22;20025;-90
2023/08/13 13:49:39;;;;;;;4.57;1.35;;;;;;;;;;6341954;22;20014;-91
2023/08/13 13:52:05;;;;;;;3.20;1.35;;;;;;;;;;6368380;22;20021;-90
2023/08/13 13:54:32;;;;;;;4.82;1.38;;;;;;;;;;6368924;22;20020;-91
2023/08/13 13:56:58;;;;;;;3.85;1.55;;;;;;;;;;6369291;22;20010;-91
2023/08/13 13:59:24;;;;;;;4.25;1.60;;;;;;;;;;6341234;22;20016;-91
2023/08/13 14:01:51;;;;;;;6.32;1.40;;;;;;;;;;6369858;22;20377;-90
2023/08/13 14:04:18;;;;;;;4.50;1.63;;;;;;;;;;6340967;22;20316;-91
2023/08/13 14:06:44;;;;;;;4.68;1.38;;;;;;;;;;6342390;22;20010;-91
2023/08/13 14:09:10;;;;;;;5.60;1.42;;;;;;;;;;6368545;22;20010;-90
2023/08/13 14:11:37;;;;;;;2.22;1.15;;;;;;;;;;6369148;22;20439;-90
2023/08/13 14:14:03;;;;;;;2.83;1.20;;;;;;;;;;6370916;22;20023;-90
2023/08/13 14:16:30;;;;;;;4.15;1.40;;;;;;;;;;6369641;22;20014;-90
2023/08/13 14:18:56;;;;;;;4.28;1.27;;;;;;;;;;6354177;22;20139;-90
2023/08/13 14:21:22;;;;;;;2.95;1.10;;;;;;;;;;6367867;22;20026;-91
2023/08/13 14:23:48;;;;;;;3.10;1.10;;;;;;;;;;6379553;22;20014;-90
2023/08/13 14:26:14;;;;;;;3.15;1.00;;;;;;;;;;6354030;22;20054;-89
2023/08/13 14:28:40;;;;;;;4.75;1.60;;;;;;;;;;6375401;22;20014;-91
2023/08/13 14:31:06;;;;;;;3.70;1.20;;;;;;;;;;6342181;22;20010;-91
2023/08/13 14:33:32;;;;;;;5.80;1.45;;;;;;;;;;6369863;22;20010;-91
2023/08/13 14:35:58;;;;;;;5.25;1.25;;;;;;;;;;6369330;22;20052;-90
2023/08/13 14:38:24;;;;;;;5.35;1.58;;;;;;;;;;6369395;22;20018;-91
2023/08/13 14:40:50;;;;;;;3.53;1.23;;;;;;;;;;6340765;22;20014;-91